sensor_id;sensor_type;location;lat;lon;timestamp;P1;durP1;ratioP1;P2;durP2;ratioP2
28629;SDS011;15817;42.130;24.762;2023-03-14T00:00:52;10.30;;;2.85;;
28629;SDS011;15817;42.130;24.762;2023-03-14T00:03:21;4.40;;;2.88;;
28629;SDS011;15817;42.130;24.762;2023-03-14T00:05:49;10.02;;;3.10;;
28629;SDS011;15817;42.130;24.762;2023-03-14T00:08:15;9.80;;;2.88;;
28629;SDS011;15817;42.130;24.762;2023-03-14T00:10:49;5.18;;;2.70;;
28629;SDS011;15817;42.130;24.762;2023-03-14T00:13:17;4.70;;;2.97;;
28629;SDS011;15817;42.130;24.762;2023-03-14T00:15:43;7.30;;;2.70;;
28629;SDS011;15817;42.130;24.762;2023-03-14T00:18:08;10.05;;;2.50;;
28629;SDS011;15817;42.130;24.762;2023-03-14T00:20:34;5.55;;;3.03;;
28629;SDS011;15817;42.130;24.762;2023-03-14T00:23:02;6.43;;;3.22;;
28629;SDS011;15817;42.130;24.762;2023-03-14T00:25:28;8.95;;;3.20;;
28629;SDS011;15817;42.130;24.762;2023-03-14T00:27:54;8.70;;;3.00;;
28629;SDS011;15817;42.130;24.762;2023-03-14T00:30:22;9.15;;;3.20;;
28629;SDS011;15817;42.130;24.762;2023-03-14T00:32:56;8.68;;;3.15;;
28629;SDS011;15817;42.130;24.762;2023-03-14T00:35:21;11.35;;;4.18;;
28629;SDS011;15817;42.130;24.762;2023-03-14T00:37:47;7.03;;;3.58;;
28629;SDS011;15817;42.130;24.762;2023-03-14T00:40:14;5.70;;;3.42;;
28629;SDS011;15817;42.130;24.762;2023-03-14T00:42:40;6.30;;;3.67;;
28629;SDS011;15817;42.130;24.762;2023-03-14T00:45:06;6.85;;;3.90;;
28629;SDS011;15817;42.130;24.762;2023-03-14T00:47:34;14.65;;;4.53;;
28629;SDS011;15817;42.130;24.762;2023-03-14T00:49:59;13.85;;;4.25;;
28629;SDS011;15817;42.130;24.762;2023-03-14T00:52:27;12.20;;;4.03;;
28629;SDS011;15817;42.130;24.762;2023-03-14T00:54:53;8.05;;;4.00;;
28629;SDS011;15817;42.130;24.762;2023-03-14T00:57:19;11.35;;;4.05;;
28629;SDS011;15817;42.130;24.762;2023-03-14T00:59:50;12.68;;;4.60;;
28629;SDS011;15817;42.130;24.762;2023-03-14T01:02:17;6.93;;;3.70;;
28629;SDS011;15817;42.130;24.762;2023-03-14T01:04:42;7.85;;;3.65;;
28629;SDS011;15817;42.130;24.762;2023-03-14T01:07:11;16.63;;;4.35;;
28629;SDS011;15817;42.130;24.762;2023-03-14T01:09:38;6.75;;;3.90;;
28629;SDS011;15817;42.130;24.762;2023-03-14T01:12:06;9.00;;;4.35;;
28629;SDS011;15817;42.130;24.762;2023-03-14T01:14:32;12.65;;;3.90;;
28629;SDS011;15817;42.130;24.762;2023-03-14T01:16:58;6.43;;;3.83;;
28629;SDS011;15817;42.130;24.762;2023-03-14T01:19:27;7.22;;;3.95;;
28629;SDS011;15817;42.130;24.762;2023-03-14T01:21:53;7.53;;;4.20;;
28629;SDS011;15817;42.130;24.762;2023-03-14T01:24:19;5.72;;;3.88;;
28629;SDS011;15817;42.130;24.762;2023-03-14T01:26:48;6.13;;;3.95;;
28629;SDS011;15817;42.130;24.762;2023-03-14T01:29:14;6.05;;;3.60;;
28629;SDS011;15817;42.130;24.762;2023-03-14T01:31:40;7.38;;;3.90;;
28629;SDS011;15817;42.130;24.762;2023-03-14T01:34:06;6.95;;;3.53;;
28629;SDS011;15817;42.130;24.762;2023-03-14T01:36:32;6.85;;;4.22;;
28629;SDS011;15817;42.130;24.762;2023-03-14T01:39:03;8.18;;;3.95;;
28629;SDS011;15817;42.130;24.762;2023-03-14T01:41:31;7.32;;;4.07;;
28629;SDS011;15817;42.130;24.762;2023-03-14T01:43:59;7.93;;;3.97;;
28629;SDS011;15817;42.130;24.762;2023-03-14T01:49:20;14.07;;;4.90;;
28629;SDS011;15817;42.130;24.762;2023-03-14T01:52:15;11.15;;;4.43;;
28629;SDS011;15817;42.130;24.762;2023-03-14T01:57:20;11.05;;;4.50;;
28629;SDS011;15817;42.130;24.762;2023-03-14T01:59:54;10.27;;;5.13;;
28629;SDS011;15817;42.130;24.762;2023-03-14T02:08:49;9.10;;;5.65;;
28629;SDS011;15817;42.130;24.762;2023-03-14T02:11:21;13.88;;;6.68;;
28629;SDS011;15817;42.130;24.762;2023-03-14T02:14:03;8.80;;;6.47;;
28629;SDS011;15817;42.130;24.762;2023-03-14T02:16:48;13.82;;;7.03;;
28629;SDS011;15817;42.130;24.762;2023-03-14T02:22:33;13.00;;;6.90;;
28629;SDS011;15817;42.130;24.762;2023-03-14T02:25:08;12.65;;;6.38;;
28629;SDS011;15817;42.130;24.762;2023-03-14T02:27:36;14.43;;;6.63;;
28629;SDS011;15817;42.130;24.762;2023-03-14T02:30:11;14.10;;;6.72;;
28629;SDS011;15817;42.130;24.762;2023-03-14T02:32:41;10.00;;;6.05;;
28629;SDS011;15817;42.130;24.762;2023-03-14T02:35:14;17.20;;;5.70;;
28629;SDS011;15817;42.130;24.762;2023-03-14T02:40:26;10.60;;;5.88;;
28629;SDS011;15817;42.130;24.762;2023-03-14T02:42:52;13.43;;;6.25;;
28629;SDS011;15817;42.130;24.762;2023-03-14T02:47:49;12.40;;;5.80;;
28629;SDS011;15817;42.130;24.762;2023-03-14T02:50:24;10.02;;;6.55;;
28629;SDS011;15817;42.130;24.762;2023-03-14T02:52:55;12.63;;;6.32;;
28629;SDS011;15817;42.130;24.762;2023-03-14T02:55:22;9.88;;;6.05;;
28629;SDS011;15817;42.130;24.762;2023-03-14T02:57:57;11.13;;;6.55;;
28629;SDS011;15817;42.130;24.762;2023-03-14T03:00:23;11.20;;;6.13;;
28629;SDS011;15817;42.130;24.762;2023-03-14T03:02:50;10.55;;;6.32;;
28629;SDS011;15817;42.130;24.762;2023-03-14T03:05:16;12.90;;;6.10;;
28629;SDS011;15817;42.130;24.762;2023-03-14T03:07:42;8.77;;;5.50;;
28629;SDS011;15817;42.130;24.762;2023-03-14T03:10:08;25.48;;;6.28;;
28629;SDS011;15817;42.130;24.762;2023-03-14T03:12:35;17.88;;;6.35;;
28629;SDS011;15817;42.130;24.762;2023-03-14T03:15:00;14.95;;;6.07;;
28629;SDS011;15817;42.130;24.762;2023-03-14T03:17:26;16.73;;;5.55;;
28629;SDS011;15817;42.130;24.762;2023-03-14T03:19:53;13.30;;;6.18;;
28629;SDS011;15817;42.130;24.762;2023-03-14T03:22:19;9.93;;;6.10;;
28629;SDS011;15817;42.130;24.762;2023-03-14T03:24:48;17.40;;;5.97;;
28629;SDS011;15817;42.130;24.762;2023-03-14T03:27:17;11.75;;;6.13;;
28629;SDS011;15817;42.130;24.762;2023-03-14T03:29:43;12.63;;;6.15;;
28629;SDS011;15817;42.130;24.762;2023-03-14T03:32:09;10.88;;;5.47;;
28629;SDS011;15817;42.130;24.762;2023-03-14T03:34:37;11.27;;;6.05;;
28629;SDS011;15817;42.130;24.762;2023-03-14T03:37:05;9.57;;;6.15;;
28629;SDS011;15817;42.130;24.762;2023-03-14T03:39:35;18.08;;;6.40;;
28629;SDS011;15817;42.130;24.762;2023-03-14T03:42:01;14.52;;;6.80;;
28629;SDS011;15817;42.130;24.762;2023-03-14T03:44:46;15.13;;;6.50;;
28629;SDS011;15817;42.130;24.762;2023-03-14T03:47:12;18.77;;;6.68;;
28629;SDS011;15817;42.130;24.762;2023-03-14T03:49:38;20.23;;;6.85;;
28629;SDS011;15817;42.130;24.762;2023-03-14T03:52:05;14.85;;;6.43;;
28629;SDS011;15817;42.130;24.762;2023-03-14T03:54:31;19.92;;;6.85;;
28629;SDS011;15817;42.130;24.762;2023-03-14T03:56:57;17.17;;;6.90;;
28629;SDS011;15817;42.130;24.762;2023-03-14T04:02:39;17.73;;;7.68;;
28629;SDS011;15817;42.130;24.762;2023-03-14T04:05:07;13.82;;;7.45;;
28629;SDS011;15817;42.130;24.762;2023-03-14T04:07:33;14.48;;;7.05;;
28629;SDS011;15817;42.130;24.762;2023-03-14T04:10:02;11.10;;;6.03;;
28629;SDS011;15817;42.130;24.762;2023-03-14T04:12:33;12.38;;;6.32;;
28629;SDS011;15817;42.130;24.762;2023-03-14T04:15:09;21.15;;;7.40;;
28629;SDS011;15817;42.130;24.762;2023-03-14T04:17:38;11.88;;;6.45;;
28629;SDS011;15817;42.130;24.762;2023-03-14T04:20:04;17.23;;;6.93;;
28629;SDS011;15817;42.130;24.762;2023-03-14T04:22:34;11.20;;;6.32;;
28629;SDS011;15817;42.130;24.762;2023-03-14T04:25:03;20.08;;;7.40;;
28629;SDS011;15817;42.130;24.762;2023-03-14T04:27:33;18.08;;;7.65;;
28629;SDS011;15817;42.130;24.762;2023-03-14T04:30:01;22.52;;;9.18;;
28629;SDS011;15817;42.130;24.762;2023-03-14T04:32:50;25.48;;;8.88;;
28629;SDS011;15817;42.130;24.762;2023-03-14T04:35:18;26.10;;;9.00;;
28629;SDS011;15817;42.130;24.762;2023-03-14T04:37:44;30.63;;;7.90;;
28629;SDS011;15817;42.130;24.762;2023-03-14T04:40:15;22.80;;;7.63;;
28629;SDS011;15817;42.130;24.762;2023-03-14T04:42:44;21.15;;;7.18;;
28629;SDS011;15817;42.130;24.762;2023-03-14T04:45:11;34.30;;;8.48;;
28629;SDS011;15817;42.130;24.762;2023-03-14T04:47:39;16.67;;;7.18;;
28629;SDS011;15817;42.130;24.762;2023-03-14T04:50:07;21.92;;;7.35;;
28629;SDS011;15817;42.130;24.762;2023-03-14T04:52:36;19.35;;;7.75;;
28629;SDS011;15817;42.130;24.762;2023-03-14T04:55:02;16.00;;;7.57;;
28629;SDS011;15817;42.130;24.762;2023-03-14T04:57:28;17.05;;;9.05;;
28629;SDS011;15817;42.130;24.762;2023-03-14T04:59:58;14.75;;;8.07;;
28629;SDS011;15817;42.130;24.762;2023-03-14T05:02:42;30.05;;;9.20;;
28629;SDS011;15817;42.130;24.762;2023-03-14T05:05:31;27.83;;;9.95;;
28629;SDS011;15817;42.130;24.762;2023-03-14T05:08:27;20.15;;;10.95;;
28629;SDS011;15817;42.130;24.762;2023-03-14T05:11:25;18.45;;;8.70;;
28629;SDS011;15817;42.130;24.762;2023-03-14T05:14:13;21.92;;;9.80;;
28629;SDS011;15817;42.130;24.762;2023-03-14T05:16:58;25.67;;;11.55;;
28629;SDS011;15817;42.130;24.762;2023-03-14T05:19:36;27.88;;;10.95;;
28629;SDS011;15817;42.130;24.762;2023-03-14T05:22:21;21.13;;;10.98;;
28629;SDS011;15817;42.130;24.762;2023-03-14T05:24:57;19.77;;;8.80;;
28629;SDS011;15817;42.130;24.762;2023-03-14T05:27:42;20.52;;;13.05;;
28629;SDS011;15817;42.130;24.762;2023-03-14T05:30:23;19.55;;;10.52;;
28629;SDS011;15817;42.130;24.762;2023-03-14T05:33:11;20.23;;;8.73;;
28629;SDS011;15817;42.130;24.762;2023-03-14T05:36:01;18.45;;;8.63;;
28629;SDS011;15817;42.130;24.762;2023-03-14T05:38:53;18.33;;;8.90;;
28629;SDS011;15817;42.130;24.762;2023-03-14T05:41:30;14.05;;;8.05;;
28629;SDS011;15817;42.130;24.762;2023-03-14T05:44:24;24.38;;;12.60;;
28629;SDS011;15817;42.130;24.762;2023-03-14T05:46:56;29.20;;;11.70;;
28629;SDS011;15817;42.130;24.762;2023-03-14T05:49:37;24.27;;;10.50;;
28629;SDS011;15817;42.130;24.762;2023-03-14T05:52:26;23.67;;;10.18;;
28629;SDS011;15817;42.130;24.762;2023-03-14T05:55:03;26.73;;;13.32;;
28629;SDS011;15817;42.130;24.762;2023-03-14T05:57:49;26.55;;;15.40;;
28629;SDS011;15817;42.130;24.762;2023-03-14T06:00:28;34.15;;;16.88;;
28629;SDS011;15817;42.130;24.762;2023-03-14T06:03:16;28.33;;;17.38;;
28629;SDS011;15817;42.130;24.762;2023-03-14T06:05:51;32.70;;;17.35;;
28629;SDS011;15817;42.130;24.762;2023-03-14T06:08:26;34.22;;;18.80;;
28629;SDS011;15817;42.130;24.762;2023-03-14T06:10:53;35.22;;;20.52;;
28629;SDS011;15817;42.130;24.762;2023-03-14T06:13:27;38.58;;;19.70;;
28629;SDS011;15817;42.130;24.762;2023-03-14T06:15:53;29.15;;;15.32;;
28629;SDS011;15817;42.130;24.762;2023-03-14T06:18:19;36.72;;;16.05;;
28629;SDS011;15817;42.130;24.762;2023-03-14T06:20:45;34.13;;;16.92;;
28629;SDS011;15817;42.130;24.762;2023-03-14T06:23:20;23.52;;;14.45;;
28629;SDS011;15817;42.130;24.762;2023-03-14T06:25:47;27.13;;;13.77;;
28629;SDS011;15817;42.130;24.762;2023-03-14T06:28:16;33.80;;;14.75;;
28629;SDS011;15817;42.130;24.762;2023-03-14T06:30:45;25.48;;;13.95;;
28629;SDS011;15817;42.130;24.762;2023-03-14T06:33:16;21.50;;;11.35;;
28629;SDS011;15817;42.130;24.762;2023-03-14T06:35:49;17.67;;;11.05;;
28629;SDS011;15817;42.130;24.762;2023-03-14T06:38:17;21.00;;;11.70;;
28629;SDS011;15817;42.130;24.762;2023-03-14T06:40:50;27.08;;;11.65;;
28629;SDS011;15817;42.130;24.762;2023-03-14T06:43:28;17.38;;;10.23;;
28629;SDS011;15817;42.130;24.762;2023-03-14T06:45:57;19.98;;;10.45;;
28629;SDS011;15817;42.130;24.762;2023-03-14T06:48:23;23.90;;;11.30;;
28629;SDS011;15817;42.130;24.762;2023-03-14T06:50:53;20.05;;;11.52;;
28629;SDS011;15817;42.130;24.762;2023-03-14T06:53:21;23.30;;;11.38;;
28629;SDS011;15817;42.130;24.762;2023-03-14T06:55:47;24.73;;;10.70;;
28629;SDS011;15817;42.130;24.762;2023-03-14T06:58:27;26.60;;;9.55;;
28629;SDS011;15817;42.130;24.762;2023-03-14T07:00:57;24.23;;;10.07;;
28629;SDS011;15817;42.130;24.762;2023-03-14T07:03:28;21.13;;;7.88;;
28629;SDS011;15817;42.130;24.762;2023-03-14T07:05:55;16.38;;;8.13;;
28629;SDS011;15817;42.130;24.762;2023-03-14T07:08:21;12.73;;;7.32;;
28629;SDS011;15817;42.130;24.762;2023-03-14T07:10:47;13.45;;;7.72;;
28629;SDS011;15817;42.130;24.762;2023-03-14T07:13:17;17.05;;;9.20;;
28629;SDS011;15817;42.130;24.762;2023-03-14T07:15:56;19.27;;;8.05;;
28629;SDS011;15817;42.130;24.762;2023-03-14T07:18:22;19.17;;;8.20;;
28629;SDS011;15817;42.130;24.762;2023-03-14T07:20:48;16.17;;;8.70;;
28629;SDS011;15817;42.130;24.762;2023-03-14T07:23:27;20.58;;;9.88;;
28629;SDS011;15817;42.130;24.762;2023-03-14T07:25:55;19.48;;;9.02;;
28629;SDS011;15817;42.130;24.762;2023-03-14T07:28:32;18.35;;;9.50;;
28629;SDS011;15817;42.130;24.762;2023-03-14T07:31:06;19.48;;;9.55;;
28629;SDS011;15817;42.130;24.762;2023-03-14T07:33:33;17.20;;;8.05;;
28629;SDS011;15817;42.130;24.762;2023-03-14T07:36:00;16.83;;;7.72;;
28629;SDS011;15817;42.130;24.762;2023-03-14T07:38:27;14.68;;;8.18;;
28629;SDS011;15817;42.130;24.762;2023-03-14T07:41:17;14.15;;;7.25;;
28629;SDS011;15817;42.130;24.762;2023-03-14T07:44:09;15.27;;;7.47;;
28629;SDS011;15817;42.130;24.762;2023-03-14T07:46:35;20.73;;;7.68;;
28629;SDS011;15817;42.130;24.762;2023-03-14T07:49:00;13.35;;;6.32;;
28629;SDS011;15817;42.130;24.762;2023-03-14T07:51:26;12.30;;;6.70;;
28629;SDS011;15817;42.130;24.762;2023-03-14T07:53:52;9.88;;;5.47;;
28629;SDS011;15817;42.130;24.762;2023-03-14T07:56:18;11.00;;;5.90;;
28629;SDS011;15817;42.130;24.762;2023-03-14T07:58:47;10.35;;;6.47;;
28629;SDS011;15817;42.130;24.762;2023-03-14T08:01:12;18.48;;;6.30;;
28629;SDS011;15817;42.130;24.762;2023-03-14T08:03:41;10.02;;;5.22;;
28629;SDS011;15817;42.130;24.762;2023-03-14T08:06:06;10.95;;;5.78;;
28629;SDS011;15817;42.130;24.762;2023-03-14T08:08:35;10.75;;;5.22;;
28629;SDS011;15817;42.130;24.762;2023-03-14T08:11:04;13.10;;;6.10;;
28629;SDS011;15817;42.130;24.762;2023-03-14T08:13:34;10.70;;;5.50;;
28629;SDS011;15817;42.130;24.762;2023-03-14T08:16:05;12.05;;;5.45;;
28629;SDS011;15817;42.130;24.762;2023-03-14T08:18:34;13.73;;;5.78;;
28629;SDS011;15817;42.130;24.762;2023-03-14T08:21:00;8.43;;;5.00;;
28629;SDS011;15817;42.130;24.762;2023-03-14T08:23:26;9.18;;;4.57;;
28629;SDS011;15817;42.130;24.762;2023-03-14T08:25:54;9.88;;;4.95;;
28629;SDS011;15817;42.130;24.762;2023-03-14T08:28:20;8.60;;;4.60;;
28629;SDS011;15817;42.130;24.762;2023-03-14T08:30:48;11.93;;;5.28;;
28629;SDS011;15817;42.130;24.762;2023-03-14T08:33:24;8.93;;;4.65;;
28629;SDS011;15817;42.130;24.762;2023-03-14T08:35:54;10.75;;;5.00;;
28629;SDS011;15817;42.130;24.762;2023-03-14T08:41:24;10.32;;;5.25;;
28629;SDS011;15817;42.130;24.762;2023-03-14T08:43:50;7.65;;;4.55;;
28629;SDS011;15817;42.130;24.762;2023-03-14T08:46:26;7.95;;;4.38;;
28629;SDS011;15817;42.130;24.762;2023-03-14T08:49:18;11.13;;;4.93;;
28629;SDS011;15817;42.130;24.762;2023-03-14T08:51:44;8.75;;;4.60;;
28629;SDS011;15817;42.130;24.762;2023-03-14T08:54:10;7.90;;;4.68;;
28629;SDS011;15817;42.130;24.762;2023-03-14T08:59:37;12.20;;;4.78;;
28629;SDS011;15817;42.130;24.762;2023-03-14T09:02:03;9.95;;;4.95;;
28629;SDS011;15817;42.130;24.762;2023-03-14T09:04:29;7.32;;;4.45;;
28629;SDS011;15817;42.130;24.762;2023-03-14T09:06:56;12.15;;;5.18;;
28629;SDS011;15817;42.130;24.762;2023-03-14T09:09:25;7.22;;;4.00;;
28629;SDS011;15817;42.130;24.762;2023-03-14T09:11:55;8.88;;;4.30;;
28629;SDS011;15817;42.130;24.762;2023-03-14T09:14:24;7.28;;;4.57;;
28629;SDS011;15817;42.130;24.762;2023-03-14T09:16:49;7.80;;;4.63;;
28629;SDS011;15817;42.130;24.762;2023-03-14T09:19:16;11.13;;;5.05;;
28629;SDS011;15817;42.130;24.762;2023-03-14T09:21:42;7.47;;;4.40;;
28629;SDS011;15817;42.130;24.762;2023-03-14T09:24:08;8.05;;;4.38;;
28629;SDS011;15817;42.130;24.762;2023-03-14T09:26:34;14.68;;;4.63;;
28629;SDS011;15817;42.130;24.762;2023-03-14T09:29:00;10.38;;;4.60;;
28629;SDS011;15817;42.130;24.762;2023-03-14T09:31:25;7.90;;;4.75;;
28629;SDS011;15817;42.130;24.762;2023-03-14T09:34:03;7.53;;;4.90;;
28629;SDS011;15817;42.130;24.762;2023-03-14T09:36:29;11.38;;;4.85;;
28629;SDS011;15817;42.130;24.762;2023-03-14T09:39:03;12.60;;;4.90;;
28629;SDS011;15817;42.130;24.762;2023-03-14T09:41:33;8.10;;;4.40;;
28629;SDS011;15817;42.130;24.762;2023-03-14T09:44:12;8.00;;;4.68;;
28629;SDS011;15817;42.130;24.762;2023-03-14T09:46:40;6.15;;;4.47;;
28629;SDS011;15817;42.130;24.762;2023-03-14T09:49:28;13.10;;;4.93;;
28629;SDS011;15817;42.130;24.762;2023-03-14T09:51:57;6.57;;;4.35;;
28629;SDS011;15817;42.130;24.762;2023-03-14T09:54:37;6.72;;;4.07;;
28629;SDS011;15817;42.130;24.762;2023-03-14T09:57:14;6.93;;;3.92;;
28629;SDS011;15817;42.130;24.762;2023-03-14T09:59:46;5.07;;;3.90;;
28629;SDS011;15817;42.130;24.762;2023-03-14T10:02:18;7.20;;;4.00;;
28629;SDS011;15817;42.130;24.762;2023-03-14T10:04:50;6.88;;;4.15;;
28629;SDS011;15817;42.130;24.762;2023-03-14T10:07:20;6.78;;;3.70;;
28629;SDS011;15817;42.130;24.762;2023-03-14T10:09:50;12.35;;;4.22;;
28629;SDS011;15817;42.130;24.762;2023-03-14T10:12:17;8.73;;;4.50;;
28629;SDS011;15817;42.130;24.762;2023-03-14T10:14:45;7.68;;;3.95;;
28629;SDS011;15817;42.130;24.762;2023-03-14T10:17:20;5.20;;;3.72;;
28629;SDS011;15817;42.130;24.762;2023-03-14T10:19:50;7.13;;;3.70;;
28629;SDS011;15817;42.130;24.762;2023-03-14T10:22:20;7.50;;;4.03;;
28629;SDS011;15817;42.130;24.762;2023-03-14T10:24:52;10.25;;;4.32;;
28629;SDS011;15817;42.130;24.762;2023-03-14T10:27:26;11.23;;;4.10;;
28629;SDS011;15817;42.130;24.762;2023-03-14T10:30:06;5.97;;;3.67;;
28629;SDS011;15817;42.130;24.762;2023-03-14T10:32:34;4.60;;;3.55;;
28629;SDS011;15817;42.130;24.762;2023-03-14T10:38:02;6.40;;;3.65;;
28629;SDS011;15817;42.130;24.762;2023-03-14T10:40:39;8.45;;;4.18;;
28629;SDS011;15817;42.130;24.762;2023-03-14T10:43:12;6.93;;;4.45;;
28629;SDS011;15817;42.130;24.762;2023-03-14T10:45:42;7.55;;;3.80;;
28629;SDS011;15817;42.130;24.762;2023-03-14T10:50:53;7.90;;;4.45;;
28629;SDS011;15817;42.130;24.762;2023-03-14T10:53:27;5.55;;;4.15;;
28629;SDS011;15817;42.130;24.762;2023-03-14T10:55:59;8.27;;;4.32;;
28629;SDS011;15817;42.130;24.762;2023-03-14T10:58:29;12.38;;;4.68;;
28629;SDS011;15817;42.130;24.762;2023-03-14T11:12:57;6.20;;;3.20;;
28629;SDS011;15817;42.130;24.762;2023-03-14T11:21:37;4.82;;;2.80;;
28629;SDS011;15817;42.130;24.762;2023-03-14T11:27:21;7.30;;;2.85;;
28629;SDS011;15817;42.130;24.762;2023-03-14T11:32:59;7.90;;;2.72;;
28629;SDS011;15817;42.130;24.762;2023-03-14T11:35:47;4.50;;;2.78;;
28629;SDS011;15817;42.130;24.762;2023-03-14T11:40:55;5.47;;;2.95;;
28629;SDS011;15817;42.130;24.762;2023-03-14T11:43:29;6.63;;;2.95;;
28629;SDS011;15817;42.130;24.762;2023-03-14T11:45:58;4.82;;;2.88;;
28629;SDS011;15817;42.130;24.762;2023-03-14T11:51:06;2.80;;;2.20;;
28629;SDS011;15817;42.130;24.762;2023-03-14T11:56:28;4.80;;;2.75;;
28629;SDS011;15817;42.130;24.762;2023-03-14T11:59:07;5.68;;;2.72;;
28629;SDS011;15817;42.130;24.762;2023-03-14T12:01:49;3.38;;;2.40;;
28629;SDS011;15817;42.130;24.762;2023-03-14T12:04:21;5.13;;;2.97;;
28629;SDS011;15817;42.130;24.762;2023-03-14T12:07:03;3.70;;;2.75;;
28629;SDS011;15817;42.130;24.762;2023-03-14T12:09:46;5.88;;;2.90;;
28629;SDS011;15817;42.130;24.762;2023-03-14T12:12:18;5.07;;;2.70;;
28629;SDS011;15817;42.130;24.762;2023-03-14T12:14:58;4.72;;;2.92;;
28629;SDS011;15817;42.130;24.762;2023-03-14T12:17:36;5.03;;;2.97;;
28629;SDS011;15817;42.130;24.762;2023-03-14T12:22:51;3.78;;;2.78;;
28629;SDS011;15817;42.130;24.762;2023-03-14T12:25:23;7.00;;;3.30;;
28629;SDS011;15817;42.130;24.762;2023-03-14T12:35:44;3.95;;;2.97;;
28629;SDS011;15817;42.130;24.762;2023-03-14T12:38:32;5.95;;;3.20;;
28629;SDS011;15817;42.130;24.762;2023-03-14T12:41:21;6.93;;;3.50;;
28629;SDS011;15817;42.130;24.762;2023-03-14T12:43:53;6.53;;;3.20;;
28629;SDS011;15817;42.130;24.762;2023-03-14T12:46:25;6.15;;;3.05;;
28629;SDS011;15817;42.130;24.762;2023-03-14T13:06:02;4.85;;;2.80;;
28629;SDS011;15817;42.130;24.762;2023-03-14T13:08:47;5.80;;;3.15;;
28629;SDS011;15817;42.130;24.762;2023-03-14T13:11:23;4.97;;;2.67;;
28629;SDS011;15817;42.130;24.762;2023-03-14T13:13:58;5.72;;;2.97;;
28629;SDS011;15817;42.130;24.762;2023-03-14T13:16:24;4.28;;;2.70;;
28629;SDS011;15817;42.130;24.762;2023-03-14T13:21:55;6.13;;;4.28;;
28629;SDS011;15817;42.130;24.762;2023-03-14T13:24:27;4.60;;;3.33;;
28629;SDS011;15817;42.130;24.762;2023-03-14T13:26:59;5.70;;;3.40;;
28629;SDS011;15817;42.130;24.762;2023-03-14T13:29:29;3.83;;;2.80;;
28629;SDS011;15817;42.130;24.762;2023-03-14T13:32:00;3.47;;;3.00;;
28629;SDS011;15817;42.130;24.762;2023-03-14T13:34:35;5.63;;;3.00;;
28629;SDS011;15817;42.130;24.762;2023-03-14T13:37:12;7.32;;;3.38;;
28629;SDS011;15817;42.130;24.762;2023-03-14T13:40:17;4.25;;;3.05;;
28629;SDS011;15817;42.130;24.762;2023-03-14T13:43:20;5.43;;;2.97;;
28629;SDS011;15817;42.130;24.762;2023-03-14T13:48:42;6.88;;;3.15;;
28629;SDS011;15817;42.130;24.762;2023-03-14T13:51:19;4.80;;;2.95;;
28629;SDS011;15817;42.130;24.762;2023-03-14T13:53:53;3.80;;;3.10;;
28629;SDS011;15817;42.130;24.762;2023-03-14T13:56:21;3.50;;;3.00;;
28629;SDS011;15817;42.130;24.762;2023-03-14T13:58:50;3.97;;;2.90;;
28629;SDS011;15817;42.130;24.762;2023-03-14T14:04:15;3.80;;;2.63;;
28629;SDS011;15817;42.130;24.762;2023-03-14T14:06:57;5.95;;;2.80;;
28629;SDS011;15817;42.130;24.762;2023-03-14T14:09:27;4.00;;;2.60;;
28629;SDS011;15817;42.130;24.762;2023-03-14T14:11:56;9.45;;;2.95;;
28629;SDS011;15817;42.130;24.762;2023-03-14T14:14:37;9.85;;;2.80;;
28629;SDS011;15817;42.130;24.762;2023-03-14T14:17:16;8.52;;;2.95;;
28629;SDS011;15817;42.130;24.762;2023-03-14T14:19:59;4.53;;;3.28;;
28629;SDS011;15817;42.130;24.762;2023-03-14T14:22:30;5.32;;;2.58;;
28629;SDS011;15817;42.130;24.762;2023-03-14T14:25:02;4.50;;;3.70;;
28629;SDS011;15817;42.130;24.762;2023-03-14T14:27:48;3.97;;;2.42;;
28629;SDS011;15817;42.130;24.762;2023-03-14T14:30:24;4.72;;;2.90;;
28629;SDS011;15817;42.130;24.762;2023-03-14T14:33:10;4.10;;;2.60;;
28629;SDS011;15817;42.130;24.762;2023-03-14T14:35:57;6.97;;;2.63;;
28629;SDS011;15817;42.130;24.762;2023-03-14T14:38:26;7.15;;;2.58;;
28629;SDS011;15817;42.130;24.762;2023-03-14T14:40:59;3.60;;;2.60;;
28629;SDS011;15817;42.130;24.762;2023-03-14T14:43:38;5.93;;;3.45;;
28629;SDS011;15817;42.130;24.762;2023-03-14T14:46:18;3.95;;;3.10;;
28629;SDS011;15817;42.130;24.762;2023-03-14T14:48:49;4.50;;;3.10;;
28629;SDS011;15817;42.130;24.762;2023-03-14T14:51:59;4.88;;;2.92;;
28629;SDS011;15817;42.130;24.762;2023-03-14T14:54:34;3.50;;;3.00;;
28629;SDS011;15817;42.130;24.762;2023-03-14T14:57:12;6.32;;;3.30;;
28629;SDS011;15817;42.130;24.762;2023-03-14T14:59:48;5.45;;;3.50;;
28629;SDS011;15817;42.130;24.762;2023-03-14T15:02:58;5.05;;;3.10;;
28629;SDS011;15817;42.130;24.762;2023-03-14T15:05:47;4.80;;;3.55;;
28629;SDS011;15817;42.130;24.762;2023-03-14T15:08:26;7.85;;;3.53;;
28629;SDS011;15817;42.130;24.762;2023-03-14T15:14:11;8.27;;;3.22;;
28629;SDS011;15817;42.130;24.762;2023-03-14T15:17:28;4.22;;;3.13;;
28629;SDS011;15817;42.130;24.762;2023-03-14T15:20:56;8.45;;;3.28;;
28629;SDS011;15817;42.130;24.762;2023-03-14T15:23:31;5.80;;;3.17;;
28629;SDS011;15817;42.130;24.762;2023-03-14T15:26:11;5.82;;;3.50;;
28629;SDS011;15817;42.130;24.762;2023-03-14T15:28:48;7.85;;;3.88;;
28629;SDS011;15817;42.130;24.762;2023-03-14T15:31:17;5.28;;;3.15;;
28629;SDS011;15817;42.130;24.762;2023-03-14T15:33:52;7.25;;;3.65;;
28629;SDS011;15817;42.130;24.762;2023-03-14T15:38:52;5.38;;;3.38;;
28629;SDS011;15817;42.130;24.762;2023-03-14T15:41:29;5.32;;;3.28;;
28629;SDS011;15817;42.130;24.762;2023-03-14T15:44:20;4.88;;;2.95;;
28629;SDS011;15817;42.130;24.762;2023-03-14T15:46:47;4.72;;;2.70;;
28629;SDS011;15817;42.130;24.762;2023-03-14T15:49:24;5.97;;;3.10;;
28629;SDS011;15817;42.130;24.762;2023-03-14T15:51:53;5.07;;;2.53;;
28629;SDS011;15817;42.130;24.762;2023-03-14T15:54:33;3.28;;;2.70;;
28629;SDS011;15817;42.130;24.762;2023-03-14T15:57:05;6.10;;;2.78;;
28629;SDS011;15817;42.130;24.762;2023-03-14T15:59:37;6.03;;;3.10;;
28629;SDS011;15817;42.130;24.762;2023-03-14T16:02:06;3.53;;;2.22;;
28629;SDS011;15817;42.130;24.762;2023-03-14T16:04:48;6.40;;;2.08;;
28629;SDS011;15817;42.130;24.762;2023-03-14T16:07:35;6.10;;;2.25;;
28629;SDS011;15817;42.130;24.762;2023-03-14T16:10:10;5.22;;;2.03;;
28629;SDS011;15817;42.130;24.762;2023-03-14T16:12:39;4.00;;;2.20;;
28629;SDS011;15817;42.130;24.762;2023-03-14T16:15:15;6.13;;;2.53;;
28629;SDS011;15817;42.130;24.762;2023-03-14T16:17:43;4.25;;;2.60;;
28629;SDS011;15817;42.130;24.762;2023-03-14T16:20:17;7.53;;;3.75;;
28629;SDS011;15817;42.130;24.762;2023-03-14T16:22:59;8.68;;;4.28;;
28629;SDS011;15817;42.130;24.762;2023-03-14T16:25:39;5.63;;;3.30;;
28629;SDS011;15817;42.130;24.762;2023-03-14T16:28:31;7.43;;;3.17;;
28629;SDS011;15817;42.130;24.762;2023-03-14T16:31:06;9.48;;;3.65;;
28629;SDS011;15817;42.130;24.762;2023-03-14T16:33:34;9.23;;;3.30;;
28629;SDS011;15817;42.130;24.762;2023-03-14T16:36:01;4.38;;;2.70;;
28629;SDS011;15817;42.130;24.762;2023-03-14T16:38:33;6.65;;;3.22;;
28629;SDS011;15817;42.130;24.762;2023-03-14T16:41:11;8.95;;;3.00;;
28629;SDS011;15817;42.130;24.762;2023-03-14T16:43:47;6.70;;;3.80;;
28629;SDS011;15817;42.130;24.762;2023-03-14T16:46:20;8.57;;;3.35;;
28629;SDS011;15817;42.130;24.762;2023-03-14T16:48:56;7.00;;;3.83;;